Aérodrome :
LOGIN :

S'inscrire | Disclaimer

   EN    FR    IT 

 










Légende :    VFR   VFR Marginal   IFR   IFR Intensif   IFR Très Intensif
Visi : 
Plafond : 
>= 8 km
>= 3000ft
5 à 8 km
1000 à 3000 ft
1500m à 5 km
500 à 1000 ft
800 à 1500m
200 à 500 ft
< 800m
< 200 ft
Symboles :   Orages  Brouillard  Fortes neiges  Fortes précipitations  Vent > 20 kt
SIGMETs :   Divers  Orages  Givrage  Turbulence  Onde Orograph.  Cendres Volcan.






- Altitude de l'aérodrome : 465 ft
- Code IATA : LEJ


EDDP - Leipzig Halle

DERNIER METAR :
  • 050020Z 30002KT 8000 FEW023 15/15 Q1011 NOSIG

METARs EXPIRÉS :
  • 042350Z VRB02KT 8000 VCSH NSC 16/15 Q1012 NOSIG
  • 042320Z 31005KT 9999 VCSH NSC 16/15 Q1012 NOSIG
  • 042250Z 06003KT CAVOK 16/15 Q1012 NOSIG
  • 042220Z 05004KT 9999 VCSH NSC 17/15 Q1012 NOSIG
  • 042150Z 04003KT 9999 VCSH NSC 17/15 Q1012 NOSIG

TAF TAF EDDP
Valide du 05 à 00h jusqu'au 06 à 00h UTC


042300Z 0500/0524 02004KT 9999 SCT040
BECMG 0501/0504 3000 BR
PROB40
TEMPO 0502/0506 1200 BCFG BKN002
BECMG 0504/0507 9999 BKN008
BECMG 0507/0509 BKN013
BECMG 0509/0512 BKN015
PROB40
TEMPO 0512/0518 4500 TSRA BKN015CB
BECMG 0514/0517 11005KT



MET'MAP, la Météo Aéronautique d'un coup d'oeil ! - Copyright ORBIFLY Décembre 2007 - Disclaimer

ORBIFLY MET'MAP TEAM :

Programmation & Développement : Alexandra Zaïnal
Sur une idée originale de : Baudouin d'Aumeries
Assistance à la programmation : Marc-Olivier Méhu
Soutien technique & logistique : Manuel Goepfert

Contact : metmap@orbifly.com




SOURCES & CREDITS :

   NOAA